sensor_id;sensor_type;location;lat;lon;timestamp;P1;durP1;ratioP1;P2;durP2;ratioP2
5650;SDS011;40241;52.684;9.758;2023-03-20T00:03:48;10.57;;;7.80;;
5650;SDS011;40241;52.684;9.758;2023-03-20T00:06:17;11.40;;;9.07;;
5650;SDS011;40241;52.684;9.758;2023-03-20T00:08:45;10.67;;;8.60;;
5650;SDS011;40241;52.684;9.758;2023-03-20T00:13:56;12.80;;;9.03;;
5650;SDS011;40241;52.684;9.758;2023-03-20T00:16:34;11.90;;;9.07;;
5650;SDS011;40241;52.684;9.758;2023-03-20T00:19:04;13.67;;;8.73;;
5650;SDS011;40241;52.684;9.758;2023-03-20T00:21:31;12.57;;;9.40;;
5650;SDS011;40241;52.684;9.758;2023-03-20T00:23:58;14.27;;;10.30;;
5650;SDS011;40241;52.684;9.758;2023-03-20T00:26:25;16.13;;;10.27;;
5650;SDS011;40241;52.684;9.758;2023-03-20T00:28:54;13.97;;;10.20;;
5650;SDS011;40241;52.684;9.758;2023-03-20T00:31:24;14.47;;;9.80;;
5650;SDS011;40241;52.684;9.758;2023-03-20T00:33:51;13.80;;;9.67;;
5650;SDS011;40241;52.684;9.758;2023-03-20T00:36:18;13.53;;;9.70;;
5650;SDS011;40241;52.684;9.758;2023-03-20T00:38:43;16.73;;;9.20;;
5650;SDS011;40241;52.684;9.758;2023-03-20T00:41:26;13.70;;;9.20;;
5650;SDS011;40241;52.684;9.758;2023-03-20T00:44:01;15.20;;;9.40;;
5650;SDS011;40241;52.684;9.758;2023-03-20T00:46:31;15.60;;;10.30;;
5650;SDS011;40241;52.684;9.758;2023-03-20T00:49:01;19.97;;;11.67;;
5650;SDS011;40241;52.684;9.758;2023-03-20T00:51:27;19.70;;;11.00;;
5650;SDS011;40241;52.684;9.758;2023-03-20T00:53:52;15.63;;;10.40;;
5650;SDS011;40241;52.684;9.758;2023-03-20T01:02:17;17.70;;;11.50;;
5650;SDS011;40241;52.684;9.758;2023-03-20T01:04:45;16.90;;;10.80;;
5650;SDS011;40241;52.684;9.758;2023-03-20T01:07:13;19.40;;;11.47;;
5650;SDS011;40241;52.684;9.758;2023-03-20T01:09:39;19.63;;;11.67;;
5650;SDS011;40241;52.684;9.758;2023-03-20T01:12:04;25.27;;;14.07;;
5650;SDS011;40241;52.684;9.758;2023-03-20T01:14:32;19.87;;;12.50;;
5650;SDS011;40241;52.684;9.758;2023-03-20T01:16:57;24.17;;;11.93;;
5650;SDS011;40241;52.684;9.758;2023-03-20T01:19:22;22.30;;;12.33;;
5650;SDS011;40241;52.684;9.758;2023-03-20T01:21:50;26.67;;;13.20;;
5650;SDS011;40241;52.684;9.758;2023-03-20T01:24:15;22.17;;;12.40;;
5650;SDS011;40241;52.684;9.758;2023-03-20T01:26:42;24.53;;;12.70;;
5650;SDS011;40241;52.684;9.758;2023-03-20T01:29:21;23.33;;;12.27;;
5650;SDS011;40241;52.684;9.758;2023-03-20T01:31:49;19.27;;;12.17;;
5650;SDS011;40241;52.684;9.758;2023-03-20T01:34:15;23.03;;;12.30;;
5650;SDS011;40241;52.684;9.758;2023-03-20T01:36:45;19.50;;;12.83;;
5650;SDS011;40241;52.684;9.758;2023-03-20T01:39:14;23.23;;;13.00;;
5650;SDS011;40241;52.684;9.758;2023-03-20T01:41:39;21.63;;;12.60;;
5650;SDS011;40241;52.684;9.758;2023-03-20T01:44:24;25.87;;;12.60;;
5650;SDS011;40241;52.684;9.758;2023-03-20T01:46:53;22.03;;;12.60;;
5650;SDS011;40241;52.684;9.758;2023-03-20T01:51:44;26.30;;;13.10;;
5650;SDS011;40241;52.684;9.758;2023-03-20T01:56:49;25.73;;;12.63;;
5650;SDS011;40241;52.684;9.758;2023-03-20T02:02:00;24.07;;;13.23;;
5650;SDS011;40241;52.684;9.758;2023-03-20T02:04:28;26.73;;;13.90;;
5650;SDS011;40241;52.684;9.758;2023-03-20T02:06:56;26.23;;;13.70;;
5650;SDS011;40241;52.684;9.758;2023-03-20T02:09:21;25.10;;;13.80;;
5650;SDS011;40241;52.684;9.758;2023-03-20T02:11:47;26.17;;;14.23;;
5650;SDS011;40241;52.684;9.758;2023-03-20T02:14:13;23.63;;;13.20;;
5650;SDS011;40241;52.684;9.758;2023-03-20T02:16:39;26.93;;;14.30;;
5650;SDS011;40241;52.684;9.758;2023-03-20T02:19:06;26.50;;;13.77;;
5650;SDS011;40241;52.684;9.758;2023-03-20T02:41:56;20.50;;;12.20;;
5650;SDS011;40241;52.684;9.758;2023-03-20T02:47:05;26.80;;;12.90;;
5650;SDS011;40241;52.684;9.758;2023-03-20T02:52:47;24.60;;;12.93;;
5650;SDS011;40241;52.684;9.758;2023-03-20T02:58:27;22.30;;;11.33;;
5650;SDS011;40241;52.684;9.758;2023-03-20T03:01:01;21.63;;;11.60;;
5650;SDS011;40241;52.684;9.758;2023-03-20T03:03:40;22.90;;;11.40;;
5650;SDS011;40241;52.684;9.758;2023-03-20T03:06:21;17.27;;;10.47;;
5650;SDS011;40241;52.684;9.758;2023-03-20T03:08:55;19.17;;;9.27;;
5650;SDS011;40241;52.684;9.758;2023-03-20T03:11:27;16.90;;;10.47;;
5650;SDS011;40241;52.684;9.758;2023-03-20T03:13:56;18.20;;;9.90;;
5650;SDS011;40241;52.684;9.758;2023-03-20T03:16:26;18.80;;;10.70;;
5650;SDS011;40241;52.684;9.758;2023-03-20T03:21:52;20.17;;;10.30;;
5650;SDS011;40241;52.684;9.758;2023-03-20T03:24:28;18.73;;;9.30;;
5650;SDS011;40241;52.684;9.758;2023-03-20T03:26:56;16.77;;;8.77;;
5650;SDS011;40241;52.684;9.758;2023-03-20T03:29:24;15.77;;;8.40;;
5650;SDS011;40241;52.684;9.758;2023-03-20T03:31:57;16.00;;;8.10;;
5650;SDS011;40241;52.684;9.758;2023-03-20T03:34:25;20.23;;;9.77;;
5650;SDS011;40241;52.684;9.758;2023-03-20T03:37:16;20.10;;;8.73;;
5650;SDS011;40241;52.684;9.758;2023-03-20T03:40:14;14.90;;;7.90;;
5650;SDS011;40241;52.684;9.758;2023-03-20T03:43:08;14.87;;;7.80;;
5650;SDS011;40241;52.684;9.758;2023-03-20T03:45:51;15.37;;;8.43;;
5650;SDS011;40241;52.684;9.758;2023-03-20T03:48:25;13.90;;;7.10;;
5650;SDS011;40241;52.684;9.758;2023-03-20T03:50:57;12.67;;;7.07;;
5650;SDS011;40241;52.684;9.758;2023-03-20T03:53:31;13.93;;;6.80;;
5650;SDS011;40241;52.684;9.758;2023-03-20T03:56:01;14.50;;;7.63;;
5650;SDS011;40241;52.684;9.758;2023-03-20T03:58:38;10.53;;;6.83;;
5650;SDS011;40241;52.684;9.758;2023-03-20T04:01:07;10.77;;;6.80;;
5650;SDS011;40241;52.684;9.758;2023-03-20T04:03:40;10.17;;;6.43;;
5650;SDS011;40241;52.684;9.758;2023-03-20T04:06:08;12.03;;;6.47;;
5650;SDS011;40241;52.684;9.758;2023-03-20T04:08:38;10.17;;;5.70;;
5650;SDS011;40241;52.684;9.758;2023-03-20T04:11:04;7.70;;;4.90;;
5650;SDS011;40241;52.684;9.758;2023-03-20T04:13:30;9.73;;;6.23;;
5650;SDS011;40241;52.684;9.758;2023-03-20T04:15:55;9.80;;;5.57;;
5650;SDS011;40241;52.684;9.758;2023-03-20T04:18:21;8.00;;;5.40;;
5650;SDS011;40241;52.684;9.758;2023-03-20T04:20:47;8.97;;;5.13;;
5650;SDS011;40241;52.684;9.758;2023-03-20T04:23:13;9.47;;;5.07;;
5650;SDS011;40241;52.684;9.758;2023-03-20T04:25:39;11.93;;;6.00;;
5650;SDS011;40241;52.684;9.758;2023-03-20T04:28:05;8.77;;;5.93;;
5650;SDS011;40241;52.684;9.758;2023-03-20T04:30:30;10.20;;;5.70;;
5650;SDS011;40241;52.684;9.758;2023-03-20T04:32:56;10.70;;;5.87;;
5650;SDS011;40241;52.684;9.758;2023-03-20T04:35:22;10.67;;;5.80;;
5650;SDS011;40241;52.684;9.758;2023-03-20T04:37:47;10.00;;;5.73;;
5650;SDS011;40241;52.684;9.758;2023-03-20T04:40:12;8.77;;;5.80;;
5650;SDS011;40241;52.684;9.758;2023-03-20T04:42:38;11.57;;;6.20;;
5650;SDS011;40241;52.684;9.758;2023-03-20T04:45:23;10.47;;;4.83;;
5650;SDS011;40241;52.684;9.758;2023-03-20T04:47:49;15.60;;;5.90;;
5650;SDS011;40241;52.684;9.758;2023-03-20T04:50:14;12.17;;;6.60;;
5650;SDS011;40241;52.684;9.758;2023-03-20T04:52:40;11.70;;;6.30;;
5650;SDS011;40241;52.684;9.758;2023-03-20T04:55:05;9.07;;;5.20;;
5650;SDS011;40241;52.684;9.758;2023-03-20T04:57:31;11.40;;;5.80;;
5650;SDS011;40241;52.684;9.758;2023-03-20T04:59:57;11.90;;;6.20;;
5650;SDS011;40241;52.684;9.758;2023-03-20T05:02:22;11.13;;;5.33;;
5650;SDS011;40241;52.684;9.758;2023-03-20T05:04:47;12.53;;;6.53;;
5650;SDS011;40241;52.684;9.758;2023-03-20T05:07:13;9.23;;;5.27;;
5650;SDS011;40241;52.684;9.758;2023-03-20T05:09:38;9.70;;;5.80;;
5650;SDS011;40241;52.684;9.758;2023-03-20T05:12:03;10.07;;;5.70;;
5650;SDS011;40241;52.684;9.758;2023-03-20T05:14:29;10.60;;;6.57;;
5650;SDS011;40241;52.684;9.758;2023-03-20T05:16:54;9.33;;;6.20;;
5650;SDS011;40241;52.684;9.758;2023-03-20T05:19:20;9.57;;;6.20;;
5650;SDS011;40241;52.684;9.758;2023-03-20T05:21:45;8.70;;;5.10;;
5650;SDS011;40241;52.684;9.758;2023-03-20T05:24:11;11.63;;;6.07;;
5650;SDS011;40241;52.684;9.758;2023-03-20T05:26:36;10.97;;;6.00;;
5650;SDS011;40241;52.684;9.758;2023-03-20T05:29:01;9.63;;;6.03;;
5650;SDS011;40241;52.684;9.758;2023-03-20T05:31:27;11.60;;;6.13;;
5650;SDS011;40241;52.684;9.758;2023-03-20T05:33:52;10.50;;;5.97;;
5650;SDS011;40241;52.684;9.758;2023-03-20T05:36:18;9.77;;;5.90;;
5650;SDS011;40241;52.684;9.758;2023-03-20T05:38:43;13.23;;;6.03;;
5650;SDS011;40241;52.684;9.758;2023-03-20T05:41:08;10.10;;;5.73;;
5650;SDS011;40241;52.684;9.758;2023-03-20T05:43:34;12.67;;;6.80;;
5650;SDS011;40241;52.684;9.758;2023-03-20T05:45:59;11.83;;;6.70;;
5650;SDS011;40241;52.684;9.758;2023-03-20T05:48:25;14.07;;;7.50;;
5650;SDS011;40241;52.684;9.758;2023-03-20T05:50:50;15.07;;;8.23;;
5650;SDS011;40241;52.684;9.758;2023-03-20T05:53:15;19.70;;;8.17;;
5650;SDS011;40241;52.684;9.758;2023-03-20T05:55:41;20.30;;;9.57;;
5650;SDS011;40241;52.684;9.758;2023-03-20T05:58:08;14.00;;;8.27;;
5650;SDS011;40241;52.684;9.758;2023-03-20T06:00:41;19.70;;;10.23;;
5650;SDS011;40241;52.684;9.758;2023-03-20T06:03:06;21.50;;;11.60;;
5650;SDS011;40241;52.684;9.758;2023-03-20T06:05:34;23.60;;;10.90;;
5650;SDS011;40241;52.684;9.758;2023-03-20T06:08:00;20.57;;;10.67;;
5650;SDS011;40241;52.684;9.758;2023-03-20T06:10:26;19.40;;;10.40;;
5650;SDS011;40241;52.684;9.758;2023-03-20T06:12:54;27.57;;;11.70;;
5650;SDS011;40241;52.684;9.758;2023-03-20T06:15:20;20.97;;;11.07;;
5650;SDS011;40241;52.684;9.758;2023-03-20T06:17:46;30.73;;;12.10;;
5650;SDS011;40241;52.684;9.758;2023-03-20T06:20:11;26.93;;;12.10;;
5650;SDS011;40241;52.684;9.758;2023-03-20T06:22:37;21.37;;;10.83;;
5650;SDS011;40241;52.684;9.758;2023-03-20T06:25:02;25.53;;;11.97;;
5650;SDS011;40241;52.684;9.758;2023-03-20T06:27:28;26.60;;;11.50;;
5650;SDS011;40241;52.684;9.758;2023-03-20T06:29:54;25.40;;;13.40;;
5650;SDS011;40241;52.684;9.758;2023-03-20T06:32:20;25.17;;;12.87;;
5650;SDS011;40241;52.684;9.758;2023-03-20T06:34:45;25.97;;;13.83;;
5650;SDS011;40241;52.684;9.758;2023-03-20T06:37:11;33.20;;;13.90;;
5650;SDS011;40241;52.684;9.758;2023-03-20T06:39:36;25.43;;;13.03;;
5650;SDS011;40241;52.684;9.758;2023-03-20T06:42:05;28.83;;;13.10;;
5650;SDS011;40241;52.684;9.758;2023-03-20T06:44:31;25.30;;;13.50;;
5650;SDS011;40241;52.684;9.758;2023-03-20T06:46:56;25.77;;;12.97;;
5650;SDS011;40241;52.684;9.758;2023-03-20T06:49:22;27.20;;;13.43;;
5650;SDS011;40241;52.684;9.758;2023-03-20T06:51:47;27.23;;;13.63;;
5650;SDS011;40241;52.684;9.758;2023-03-20T06:54:12;28.60;;;13.90;;
5650;SDS011;40241;52.684;9.758;2023-03-20T06:56:38;31.20;;;15.10;;
5650;SDS011;40241;52.684;9.758;2023-03-20T06:59:03;29.83;;;13.60;;
5650;SDS011;40241;52.684;9.758;2023-03-20T07:01:28;27.07;;;13.53;;
5650;SDS011;40241;52.684;9.758;2023-03-20T07:03:54;33.37;;;14.97;;
5650;SDS011;40241;52.684;9.758;2023-03-20T07:06:19;27.97;;;13.80;;
5650;SDS011;40241;52.684;9.758;2023-03-20T07:08:45;33.60;;;14.60;;
5650;SDS011;40241;52.684;9.758;2023-03-20T07:11:10;24.77;;;13.87;;
5650;SDS011;40241;52.684;9.758;2023-03-20T07:13:36;31.87;;;15.57;;
5650;SDS011;40241;52.684;9.758;2023-03-20T07:16:02;30.93;;;15.53;;
5650;SDS011;40241;52.684;9.758;2023-03-20T07:18:28;36.73;;;14.67;;
5650;SDS011;40241;52.684;9.758;2023-03-20T07:20:53;27.67;;;13.80;;
5650;SDS011;40241;52.684;9.758;2023-03-20T07:23:24;27.93;;;14.93;;
5650;SDS011;40241;52.684;9.758;2023-03-20T07:25:49;27.30;;;14.83;;
5650;SDS011;40241;52.684;9.758;2023-03-20T07:28:15;25.40;;;13.23;;
5650;SDS011;40241;52.684;9.758;2023-03-20T07:30:40;27.40;;;15.43;;
5650;SDS011;40241;52.684;9.758;2023-03-20T07:33:06;30.10;;;15.00;;
5650;SDS011;40241;52.684;9.758;2023-03-20T07:35:31;28.77;;;14.83;;
5650;SDS011;40241;52.684;9.758;2023-03-20T07:37:57;29.70;;;13.87;;
5650;SDS011;40241;52.684;9.758;2023-03-20T07:40:22;21.83;;;13.07;;
5650;SDS011;40241;52.684;9.758;2023-03-20T07:42:47;29.30;;;13.90;;
5650;SDS011;40241;52.684;9.758;2023-03-20T07:45:13;25.07;;;13.40;;
5650;SDS011;40241;52.684;9.758;2023-03-20T07:47:40;28.27;;;13.50;;
5650;SDS011;40241;52.684;9.758;2023-03-20T07:50:06;25.73;;;13.97;;
5650;SDS011;40241;52.684;9.758;2023-03-20T07:52:32;28.73;;;14.13;;
5650;SDS011;40241;52.684;9.758;2023-03-20T07:54:57;26.30;;;13.60;;
5650;SDS011;40241;52.684;9.758;2023-03-20T07:57:22;26.43;;;14.00;;
5650;SDS011;40241;52.684;9.758;2023-03-20T07:59:48;23.97;;;12.60;;
5650;SDS011;40241;52.684;9.758;2023-03-20T08:02:14;21.00;;;11.60;;
5650;SDS011;40241;52.684;9.758;2023-03-20T08:04:40;24.60;;;12.97;;
5650;SDS011;40241;52.684;9.758;2023-03-20T08:07:06;24.97;;;12.63;;
5650;SDS011;40241;52.684;9.758;2023-03-20T08:09:31;21.63;;;11.47;;
5650;SDS011;40241;52.684;9.758;2023-03-20T08:11:57;26.30;;;11.53;;
5650;SDS011;40241;52.684;9.758;2023-03-20T08:14:22;22.80;;;12.57;;
5650;SDS011;40241;52.684;9.758;2023-03-20T08:16:47;18.73;;;10.70;;
5650;SDS011;40241;52.684;9.758;2023-03-20T08:19:13;17.77;;;10.90;;
5650;SDS011;40241;52.684;9.758;2023-03-20T08:21:38;20.37;;;10.27;;
5650;SDS011;40241;52.684;9.758;2023-03-20T08:24:04;16.73;;;10.20;;
5650;SDS011;40241;52.684;9.758;2023-03-20T08:26:30;20.60;;;10.57;;
5650;SDS011;40241;52.684;9.758;2023-03-20T08:28:55;19.20;;;10.93;;
5650;SDS011;40241;52.684;9.758;2023-03-20T08:31:21;16.63;;;10.17;;
5650;SDS011;40241;52.684;9.758;2023-03-20T08:33:47;18.47;;;10.27;;
5650;SDS011;40241;52.684;9.758;2023-03-20T08:36:13;20.10;;;9.93;;
5650;SDS011;40241;52.684;9.758;2023-03-20T08:38:40;17.50;;;10.47;;
5650;SDS011;40241;52.684;9.758;2023-03-20T08:41:08;18.73;;;9.53;;
5650;SDS011;40241;52.684;9.758;2023-03-20T08:43:33;17.33;;;9.90;;
5650;SDS011;40241;52.684;9.758;2023-03-20T08:46:00;15.83;;;9.07;;
5650;SDS011;40241;52.684;9.758;2023-03-20T08:48:25;16.57;;;9.20;;
5650;SDS011;40241;52.684;9.758;2023-03-20T08:50:51;13.80;;;8.77;;
5650;SDS011;40241;52.684;9.758;2023-03-20T08:53:16;13.83;;;8.83;;
5650;SDS011;40241;52.684;9.758;2023-03-20T08:55:46;10.70;;;7.93;;
5650;SDS011;40241;52.684;9.758;2023-03-20T08:58:13;12.50;;;8.00;;
5650;SDS011;40241;52.684;9.758;2023-03-20T09:00:38;11.47;;;7.67;;
5650;SDS011;40241;52.684;9.758;2023-03-20T09:03:03;13.37;;;7.70;;
5650;SDS011;40241;52.684;9.758;2023-03-20T09:05:29;8.67;;;7.03;;
5650;SDS011;40241;52.684;9.758;2023-03-20T09:07:54;10.63;;;7.57;;
5650;SDS011;40241;52.684;9.758;2023-03-20T09:10:20;9.67;;;7.30;;
5650;SDS011;40241;52.684;9.758;2023-03-20T09:12:45;10.47;;;7.10;;
5650;SDS011;40241;52.684;9.758;2023-03-20T09:15:11;9.70;;;6.20;;
5650;SDS011;40241;52.684;9.758;2023-03-20T09:17:39;12.27;;;7.73;;
5650;SDS011;40241;52.684;9.758;2023-03-20T09:20:05;12.37;;;7.87;;
5650;SDS011;40241;52.684;9.758;2023-03-20T09:22:31;8.40;;;6.57;;
5650;SDS011;40241;52.684;9.758;2023-03-20T09:24:57;11.40;;;7.23;;
5650;SDS011;40241;52.684;9.758;2023-03-20T09:27:22;10.13;;;7.70;;
5650;SDS011;40241;52.684;9.758;2023-03-20T09:29:48;9.97;;;7.30;;
5650;SDS011;40241;52.684;9.758;2023-03-20T09:32:13;14.00;;;8.43;;
5650;SDS011;40241;52.684;9.758;2023-03-20T09:34:39;13.00;;;8.20;;
5650;SDS011;40241;52.684;9.758;2023-03-20T09:37:05;8.20;;;6.60;;
5650;SDS011;40241;52.684;9.758;2023-03-20T09:39:31;11.73;;;7.13;;
5650;SDS011;40241;52.684;9.758;2023-03-20T09:41:58;9.27;;;6.50;;
5650;SDS011;40241;52.684;9.758;2023-03-20T09:52:57;12.20;;;7.40;;
5650;SDS011;40241;52.684;9.758;2023-03-20T09:55:33;14.47;;;7.63;;
5650;SDS011;40241;52.684;9.758;2023-03-20T09:58:09;14.17;;;8.03;;
5650;SDS011;40241;52.684;9.758;2023-03-20T10:00:35;10.53;;;7.37;;
5650;SDS011;40241;52.684;9.758;2023-03-20T10:03:05;11.13;;;7.60;;
5650;SDS011;40241;52.684;9.758;2023-03-20T10:05:38;9.13;;;7.00;;
5650;SDS011;40241;52.684;9.758;2023-03-20T10:08:11;11.07;;;7.33;;
5650;SDS011;40241;52.684;9.758;2023-03-20T10:21:39;10.57;;;7.80;;
5650;SDS011;40241;52.684;9.758;2023-03-20T10:24:10;10.60;;;7.27;;
5650;SDS011;40241;52.684;9.758;2023-03-20T10:26:51;8.60;;;7.30;;
5650;SDS011;40241;52.684;9.758;2023-03-20T10:37:22;9.93;;;7.40;;
5650;SDS011;40241;52.684;9.758;2023-03-20T10:40:23;9.00;;;6.50;;
5650;SDS011;40241;52.684;9.758;2023-03-20T10:42:51;9.17;;;5.90;;
5650;SDS011;40241;52.684;9.758;2023-03-20T10:45:26;11.83;;;7.23;;
5650;SDS011;40241;52.684;9.758;2023-03-20T10:47:58;8.07;;;6.50;;
5650;SDS011;40241;52.684;9.758;2023-03-20T10:50:35;7.10;;;5.50;;
5650;SDS011;40241;52.684;9.758;2023-03-20T10:53:05;6.40;;;4.77;;
5650;SDS011;40241;52.684;9.758;2023-03-20T10:55:34;9.50;;;5.33;;
5650;SDS011;40241;52.684;9.758;2023-03-20T10:58:23;6.20;;;4.50;;
5650;SDS011;40241;52.684;9.758;2023-03-20T11:00:50;5.70;;;5.00;;
5650;SDS011;40241;52.684;9.758;2023-03-20T11:03:24;6.93;;;4.90;;
5650;SDS011;40241;52.684;9.758;2023-03-20T11:05:52;6.53;;;4.47;;
5650;SDS011;40241;52.684;9.758;2023-03-20T11:08:23;4.20;;;3.80;;
5650;SDS011;40241;52.684;9.758;2023-03-20T11:10:58;7.77;;;5.43;;
5650;SDS011;40241;52.684;9.758;2023-03-20T11:15:55;4.20;;;3.47;;
5650;SDS011;40241;52.684;9.758;2023-03-20T11:18:26;7.00;;;5.17;;
5650;SDS011;40241;52.684;9.758;2023-03-20T11:20:53;6.27;;;4.43;;
5650;SDS011;40241;52.684;9.758;2023-03-20T11:23:23;6.80;;;4.70;;
5650;SDS011;40241;52.684;9.758;2023-03-20T11:25:52;4.87;;;3.63;;
5650;SDS011;40241;52.684;9.758;2023-03-20T11:28:37;4.07;;;3.77;;
5650;SDS011;40241;52.684;9.758;2023-03-20T11:33:42;5.40;;;3.60;;
5650;SDS011;40241;52.684;9.758;2023-03-20T11:39:14;5.80;;;3.30;;
5650;SDS011;40241;52.684;9.758;2023-03-20T11:41:47;5.23;;;3.30;;
5650;SDS011;40241;52.684;9.758;2023-03-20T11:44:45;5.10;;;3.30;;
5650;SDS011;40241;52.684;9.758;2023-03-20T11:47:25;8.00;;;3.50;;
5650;SDS011;40241;52.684;9.758;2023-03-20T11:50:13;6.40;;;3.90;;
5650;SDS011;40241;52.684;9.758;2023-03-20T11:56:12;3.57;;;3.30;;
5650;SDS011;40241;52.684;9.758;2023-03-20T11:58:53;4.77;;;3.40;;
5650;SDS011;40241;52.684;9.758;2023-03-20T12:01:43;3.33;;;2.90;;
5650;SDS011;40241;52.684;9.758;2023-03-20T12:07:00;3.27;;;3.07;;
5650;SDS011;40241;52.684;9.758;2023-03-20T12:09:42;5.63;;;3.30;;
5650;SDS011;40241;52.684;9.758;2023-03-20T12:15:14;3.23;;;2.97;;
5650;SDS011;40241;52.684;9.758;2023-03-20T12:20:25;3.43;;;3.10;;
5650;SDS011;40241;52.684;9.758;2023-03-20T12:23:12;4.73;;;2.77;;
5650;SDS011;40241;52.684;9.758;2023-03-20T12:25:51;4.57;;;2.57;;
5650;SDS011;40241;52.684;9.758;2023-03-20T12:28:25;5.23;;;2.33;;
5650;SDS011;40241;52.684;9.758;2023-03-20T12:38:56;3.43;;;2.87;;
5650;SDS011;40241;52.684;9.758;2023-03-20T12:44:07;4.27;;;2.73;;
5650;SDS011;40241;52.684;9.758;2023-03-20T12:46:55;2.57;;;2.37;;
5650;SDS011;40241;52.684;9.758;2023-03-20T12:49:36;3.73;;;2.17;;
5650;SDS011;40241;52.684;9.758;2023-03-20T12:57:36;2.13;;;1.90;;
5650;SDS011;40241;52.684;9.758;2023-03-20T13:00:32;2.30;;;2.00;;
5650;SDS011;40241;52.684;9.758;2023-03-20T13:10:28;1.93;;;1.83;;
5650;SDS011;40241;52.684;9.758;2023-03-20T13:20:55;2.60;;;2.23;;
5650;SDS011;40241;52.684;9.758;2023-03-20T13:23:39;4.03;;;2.27;;
5650;SDS011;40241;52.684;9.758;2023-03-20T13:42:24;2.47;;;1.77;;
5650;SDS011;40241;52.684;9.758;2023-03-20T13:44:58;2.43;;;1.80;;
5650;SDS011;40241;52.684;9.758;2023-03-20T13:47:31;3.00;;;1.80;;
5650;SDS011;40241;52.684;9.758;2023-03-20T13:50:18;3.60;;;2.23;;
5650;SDS011;40241;52.684;9.758;2023-03-20T13:52:46;4.00;;;2.20;;
5650;SDS011;40241;52.684;9.758;2023-03-20T13:55:26;2.63;;;2.43;;
5650;SDS011;40241;52.684;9.758;2023-03-20T14:03:25;2.50;;;2.30;;
5650;SDS011;40241;52.684;9.758;2023-03-20T14:05:57;2.33;;;2.23;;
5650;SDS011;40241;52.684;9.758;2023-03-20T14:08:28;2.67;;;2.00;;
5650;SDS011;40241;52.684;9.758;2023-03-20T14:13:34;5.50;;;2.40;;
5650;SDS011;40241;52.684;9.758;2023-03-20T14:16:02;3.27;;;2.70;;
5650;SDS011;40241;52.684;9.758;2023-03-20T14:18:31;2.60;;;2.40;;
5650;SDS011;40241;52.684;9.758;2023-03-20T14:21:01;5.03;;;2.17;;
5650;SDS011;40241;52.684;9.758;2023-03-20T14:23:34;3.23;;;2.20;;
5650;SDS011;40241;52.684;9.758;2023-03-20T14:26:07;2.20;;;1.93;;
5650;SDS011;40241;52.684;9.758;2023-03-20T14:29:35;2.57;;;2.07;;
5650;SDS011;40241;52.684;9.758;2023-03-20T14:31:38;2.50;;;1.90;;
5650;SDS011;40241;52.684;9.758;2023-03-20T14:41:41;2.40;;;2.20;;
5650;SDS011;40241;52.684;9.758;2023-03-20T14:44:23;3.53;;;2.80;;
5650;SDS011;40241;52.684;9.758;2023-03-20T14:46:58;2.20;;;2.00;;
5650;SDS011;40241;52.684;9.758;2023-03-20T14:57:45;3.80;;;1.87;;
5650;SDS011;40241;52.684;9.758;2023-03-20T15:00:27;2.70;;;2.00;;
5650;SDS011;40241;52.684;9.758;2023-03-20T15:05:35;2.20;;;2.00;;
5650;SDS011;40241;52.684;9.758;2023-03-20T15:08:06;3.00;;;2.00;;
5650;SDS011;40241;52.684;9.758;2023-03-20T15:10:35;1.90;;;1.67;;
5650;SDS011;40241;52.684;9.758;2023-03-20T15:13:08;5.87;;;1.77;;
5650;SDS011;40241;52.684;9.758;2023-03-20T15:15:34;4.10;;;1.60;;
5650;SDS011;40241;52.684;9.758;2023-03-20T15:18:18;2.83;;;2.23;;
5650;SDS011;40241;52.684;9.758;2023-03-20T15:20:44;3.27;;;2.17;;
5650;SDS011;40241;52.684;9.758;2023-03-20T15:23:10;2.50;;;2.30;;
5650;SDS011;40241;52.684;9.758;2023-03-20T15:25:39;2.40;;;2.20;;
5650;SDS011;40241;52.684;9.758;2023-03-20T15:28:14;2.17;;;1.97;;
5650;SDS011;40241;52.684;9.758;2023-03-20T15:30:48;2.13;;;2.00;;
5650;SDS011;40241;52.684;9.758;2023-03-20T15:33:16;4.70;;;2.20;;
5650;SDS011;40241;52.684;9.758;2023-03-20T15:35:48;3.93;;;1.63;;
5650;SDS011;40241;52.684;9.758;2023-03-20T15:38:15;2.60;;;1.83;;
5650;SDS011;40241;52.684;9.758;2023-03-20T15:40:41;4.10;;;2.83;;
5650;SDS011;40241;52.684;9.758;2023-03-20T15:43:17;2.17;;;1.97;;
5650;SDS011;40241;52.684;9.758;2023-03-20T15:45:44;2.53;;;1.90;;
5650;SDS011;40241;52.684;9.758;2023-03-20T15:48:16;1.97;;;1.87;;
5650;SDS011;40241;52.684;9.758;2023-03-20T15:51:05;4.77;;;2.30;;
5650;SDS011;40241;52.684;9.758;2023-03-20T15:53:33;4.40;;;2.07;;
5650;SDS011;40241;52.684;9.758;2023-03-20T15:56:05;8.23;;;1.63;;
5650;SDS011;40241;52.684;9.758;2023-03-20T15:58:32;2.63;;;2.10;;
5650;SDS011;40241;52.684;9.758;2023-03-20T16:00:58;3.30;;;2.27;;
5650;SDS011;40241;52.684;9.758;2023-03-20T16:03:26;2.30;;;2.07;;
5650;SDS011;40241;52.684;9.758;2023-03-20T16:05:53;2.57;;;1.40;;
5650;SDS011;40241;52.684;9.758;2023-03-20T16:11:11;3.23;;;1.93;;
5650;SDS011;40241;52.684;9.758;2023-03-20T16:13:39;3.23;;;1.60;;
5650;SDS011;40241;52.684;9.758;2023-03-20T16:16:10;2.77;;;2.00;;
5650;SDS011;40241;52.684;9.758;2023-03-20T16:18:45;1.63;;;1.53;;
5650;SDS011;40241;52.684;9.758;2023-03-20T16:21:17;1.63;;;1.53;;
5650;SDS011;40241;52.684;9.758;2023-03-20T16:23:47;1.63;;;1.53;;
5650;SDS011;40241;52.684;9.758;2023-03-20T16:26:16;2.07;;;1.87;;
5650;SDS011;40241;52.684;9.758;2023-03-20T16:28:51;2.40;;;1.47;;
5650;SDS011;40241;52.684;9.758;2023-03-20T16:31:25;2.87;;;1.90;;
5650;SDS011;40241;52.684;9.758;2023-03-20T16:33:56;2.57;;;1.60;;
5650;SDS011;40241;52.684;9.758;2023-03-20T16:36:30;2.20;;;1.60;;
5650;SDS011;40241;52.684;9.758;2023-03-20T16:41:28;3.30;;;1.80;;
5650;SDS011;40241;52.684;9.758;2023-03-20T16:43:57;4.00;;;1.87;;
5650;SDS011;40241;52.684;9.758;2023-03-20T16:46:25;3.10;;;1.40;;
5650;SDS011;40241;52.684;9.758;2023-03-20T16:48:58;2.70;;;1.93;;
5650;SDS011;40241;52.684;9.758;2023-03-20T16:51:58;3.30;;;2.10;;
5650;SDS011;40241;52.684;9.758;2023-03-20T16:54:29;2.80;;;1.80;;
5650;SDS011;40241;52.684;9.758;2023-03-20T16:56:58;1.90;;;1.80;;
5650;SDS011;40241;52.684;9.758;2023-03-20T16:59:24;1.90;;;1.30;;
5650;SDS011;40241;52.684;9.758;2023-03-20T17:01:50;1.93;;;1.63;;
5650;SDS011;40241;52.684;9.758;2023-03-20T17:04:28;2.90;;;1.50;;
5650;SDS011;40241;52.684;9.758;2023-03-20T17:07:06;2.30;;;1.63;;
5650;SDS011;40241;52.684;9.758;2023-03-20T17:09:32;1.70;;;1.43;;
5650;SDS011;40241;52.684;9.758;2023-03-20T17:14:28;2.33;;;1.60;;
5650;SDS011;40241;52.684;9.758;2023-03-20T17:16:54;2.10;;;1.70;;
5650;SDS011;40241;52.684;9.758;2023-03-20T17:19:21;1.80;;;1.67;;
5650;SDS011;40241;52.684;9.758;2023-03-20T17:21:47;5.57;;;2.10;;
5650;SDS011;40241;52.684;9.758;2023-03-20T17:24:13;2.13;;;1.90;;
5650;SDS011;40241;52.684;9.758;2023-03-20T17:26:40;4.60;;;1.50;;
5650;SDS011;40241;52.684;9.758;2023-03-20T17:29:09;1.40;;;1.17;;
5650;SDS011;40241;52.684;9.758;2023-03-20T17:31:35;3.00;;;1.67;;
5650;SDS011;40241;52.684;9.758;2023-03-20T17:34:00;3.07;;;1.53;;
5650;SDS011;40241;52.684;9.758;2023-03-20T17:36:27;1.70;;;1.60;;
5650;SDS011;40241;52.684;9.758;2023-03-20T17:38:55;3.63;;;1.40;;
5650;SDS011;40241;52.684;9.758;2023-03-20T17:41:21;3.20;;;1.70;;
5650;SDS011;40241;52.684;9.758;2023-03-20T17:43:48;2.80;;;1.87;;
5650;SDS011;40241;52.684;9.758;2023-03-20T17:46:25;2.00;;;1.47;;
5650;SDS011;40241;52.684;9.758;2023-03-20T17:49:00;2.23;;;1.30;;
5650;SDS011;40241;52.684;9.758;2023-03-20T17:51:27;1.73;;;1.33;;
5650;SDS011;40241;52.684;9.758;2023-03-20T17:53:53;2.83;;;1.73;;
5650;SDS011;40241;52.684;9.758;2023-03-20T17:56:22;3.97;;;1.90;;
5650;SDS011;40241;52.684;9.758;2023-03-20T17:58:48;2.07;;;1.70;;
5650;SDS011;40241;52.684;9.758;2023-03-20T18:01:14;5.53;;;1.70;;
5650;SDS011;40241;52.684;9.758;2023-03-20T18:03:40;3.10;;;2.03;;
5650;SDS011;40241;52.684;9.758;2023-03-20T18:06:06;3.67;;;1.60;;